.
WxDataArchive / Data Records for 2013-09-23
2013-09-22 September 2013 2013-09-24

Data Records for Monday, 23 September 2013

Time	Temp	Chill	HIndex	Humid	Dewpt	 Wind 	HiWind	WindDir	Rain 	Barom 
-----	----	-----	------	-----	-----	------	------	-------	-----	----- 
00:00	48.2	48.2	48.2	81	42.6	0	0	---	0.00	30.052 
00:05	48.0	48.0	48.0	81	42.5	0	0	---	0.00	30.052 
00:10	47.7	47.7	47.7	81	42.2	0	0	---	0.00	30.052 
00:15	47.4	47.4	47.4	81	41.9	0	0	---	0.00	30.053 
00:20	47.3	47.3	47.3	82	42.1	0	0	---	0.00	30.053 
00:25	47.0	47.0	47.0	82	41.8	0	0	---	0.00	30.053 
00:30	46.8	46.8	46.8	83	41.9	0	1	112	0.00	30.061 
00:35	46.8	46.8	46.8	84	42.2	0	1	---	0.00	30.061 
00:40	46.7	46.7	46.7	84	42.1	0	1	112	0.00	30.061 
00:45	46.7	46.7	46.7	84	42.1	0	0	---	0.00	30.062 
00:50	46.4	46.4	46.4	84	41.8	0	0	---	0.00	30.062 
00:55	46.2	46.2	46.2	84	41.6	0	0	---	0.00	30.062 
01:00	46.2	46.2	46.2	84	41.6	0	0	---	0.00	30.063 
01:05	46.1	46.1	46.1	85	41.8	0	0	---	0.00	30.063 
01:10	46.1	46.1	46.1	85	41.8	0	0	---	0.00	30.063 
01:15	46.0	46.0	46.0	85	41.7	0	0	---	0.00	30.064 
01:20	45.8	45.8	45.8	85	41.6	0	1	112	0.00	30.064 
01:25	45.7	45.7	45.7	85	41.5	0	0	---	0.00	30.064 
01:30	45.5	45.5	45.5	85	41.3	0	0	---	0.00	30.067 
01:35	45.4	45.4	45.4	85	41.2	0	0	---	0.00	30.067 
01:40	45.2	45.2	45.2	86	41.3	0	0	---	0.00	30.067 
01:45	45.1	45.1	45.1	86	41.2	0	0	---	0.00	30.071 
01:50	44.9	44.9	44.9	86	41.0	0	0	---	0.00	30.071 
01:55	44.9	44.9	44.9	86	41.0	0	0	---	0.00	30.071 
02:00	44.8	44.8	44.8	86	40.9	0	0	---	0.00	30.072 
02:05	44.6	44.6	44.6	87	41.0	0	0	---	0.00	30.072 
02:10	44.6	44.6	44.6	87	41.0	0	0	---	0.00	30.072 
02:15	44.5	44.5	44.5	87	40.9	0	0	---	0.00	30.076 
02:20	44.3	44.3	44.3	87	40.7	0	0	---	0.00	30.076 
02:25	44.3	44.3	44.3	88	41.0	0	0	---	0.00	30.076 
02:30	44.2	44.2	44.2	88	40.9	0	0	---	0.00	30.078 
02:35	44.1	44.1	44.1	88	40.8	0	0	---	0.00	30.078 
02:40	44.1	44.1	44.1	88	40.8	0	0	---	0.00	30.078 
02:45	43.9	43.9	43.9	88	40.6	0	0	---	0.00	30.077 
02:50	43.8	43.8	43.8	88	40.5	0	0	---	0.00	30.077 
02:55	43.6	43.6	43.6	88	40.3	0	0	---	0.00	30.077 
03:00	43.5	43.5	43.5	88	40.2	0	0	---	0.00	30.075 
03:05	43.3	43.3	43.3	89	40.3	0	0	---	0.00	30.075 
03:10	43.2	43.2	43.2	89	40.2	0	0	---	0.00	30.075 
03:15	43.1	43.1	43.1	89	40.1	0	0	---	0.00	30.075 
03:20	42.9	42.9	42.9	89	39.9	0	0	---	0.00	30.075 
03:25	42.9	42.9	42.9	89	39.9	0	0	---	0.00	30.075 
03:30	42.8	42.8	42.8	89	39.8	0	0	---	0.00	30.072 
03:35	42.8	42.8	42.8	90	40.1	0	0	---	0.00	30.072 
03:40	42.6	42.6	42.6	90	39.9	0	0	---	0.00	30.072 
03:45	42.6	42.6	42.6	90	39.9	0	0	---	0.00	30.070 
03:50	42.6	42.6	42.6	90	39.9	0	0	---	0.00	30.070 
03:55	42.5	42.5	42.5	90	39.8	0	0	---	0.00	30.070 
04:00	42.5	42.5	42.5	91	40.1	0	0	---	0.00	30.070 
04:05	42.5	42.5	42.5	91	40.1	0	0	---	0.00	30.070 
04:10	42.3	42.3	42.3	91	39.9	0	0	---	0.00	30.070 
04:15	42.3	42.3	42.3	91	39.9	0	0	---	0.00	30.066 
04:20	42.2	42.2	42.2	91	39.8	0	0	---	0.00	30.066 
04:25	42.2	42.2	42.2	91	39.8	0	0	---	0.00	30.066 
04:30	42.2	42.2	42.2	91	39.8	0	0	---	0.00	30.066 
04:35	42.2	42.2	42.2	91	39.8	0	0	---	0.00	30.066 
04:40	42.2	42.2	42.2	91	39.8	0	0	---	0.00	30.066 
04:45	42.1	42.1	42.1	92	39.9	0	0	---	0.00	30.074 
04:50	42.1	42.1	42.1	92	39.9	0	0	---	0.00	30.074 
04:55	42.1	42.1	42.1	92	39.9	0	0	---	0.00	30.074 
05:00	41.9	41.9	41.9	92	39.7	0	0	---	0.00	30.073 
05:05	41.9	41.9	41.9	92	39.7	0	0	---	0.00	30.073 
05:10	41.9	41.9	41.9	92	39.7	0	0	---	0.00	30.073 
05:15	41.9	41.9	41.9	92	39.7	0	0	---	0.00	30.076 
05:20	41.9	41.9	41.9	92	39.7	0	0	---	0.00	30.076 
05:25	41.9	41.9	41.9	92	39.7	0	0	---	0.00	30.076 
05:30	41.8	41.8	41.8	92	39.6	0	0	---	0.00	30.078 
05:35	41.8	41.8	41.8	92	39.6	0	0	---	0.00	30.078 
05:40	42.1	42.1	42.1	93	40.2	0	1	112	0.00	30.078 
05:45	42.3	42.3	42.3	93	40.4	0	1	112	0.00	30.076 
05:50	42.5	42.5	42.5	92	40.3	0	3	112	0.00	30.076 
05:55	42.6	42.6	42.6	92	40.4	0	3	112	0.00	30.076 
06:00	42.6	42.6	42.6	92	40.4	0	1	112	0.00	30.079 
06:05	42.6	42.6	42.6	92	40.4	0	2	112	0.00	30.079 
06:10	42.6	42.6	42.6	92	40.4	0	1	112	0.00	30.079 
06:15	42.5	42.5	42.5	92	40.3	0	1	112	0.00	30.083 
06:20	42.5	42.5	42.5	92	40.3	0	0	---	0.00	30.083 
06:25	42.3	42.3	42.3	92	40.1	0	1	112	0.00	30.083 
06:30	42.3	42.3	42.3	92	40.1	0	0	---	0.00	30.088 
06:35	42.2	42.2	42.2	92	40.0	0	0	---	0.00	30.088 
06:40	42.2	42.2	42.2	92	40.0	0	1	112	0.00	30.088 
06:45	42.2	42.2	42.2	92	40.0	0	0	---	0.00	30.098 
06:50	42.1	42.1	42.1	92	39.9	0	0	---	0.00	30.098 
06:55	41.9	41.9	41.9	92	39.7	0	0	---	0.00	30.098 
07:00	41.8	41.8	41.8	92	39.6	0	0	---	0.00	30.103 
07:05	41.6	41.6	41.6	92	39.5	0	0	---	0.00	30.103 
07:10	41.6	41.6	41.6	92	39.5	0	0	---	0.00	30.103 
07:15	41.5	41.5	41.5	92	39.4	0	0	---	0.00	30.113 
07:20	41.5	41.5	41.5	92	39.4	0	0	---	0.00	30.113 
07:25	41.5	41.5	41.5	92	39.4	0	1	112	0.00	30.113 
07:30	41.6	41.6	41.6	92	39.5	0	0	---	0.00	30.118 
07:35	41.8	41.8	41.8	92	39.6	0	1	112	0.00	30.118 
07:40	41.8	41.8	41.8	92	39.6	0	0	---	0.00	30.118 
07:45	41.8	41.8	41.8	92	39.6	0	0	---	0.00	30.121 
07:50	41.8	41.8	41.8	92	39.6	0	0	---	0.00	30.121 
07:55	41.6	41.6	41.6	92	39.5	0	0	---	0.00	30.121 
08:00	41.8	41.8	41.8	93	39.9	0	0	---	0.00	30.133 
08:05	41.9	41.9	41.9	93	40.0	0	0	---	0.00	30.133 
08:10	42.2	42.2	42.2	93	40.3	0	1	112	0.00	30.133 
08:15	42.6	42.6	42.6	93	40.7	0	0	---	0.00	30.137 
08:20	43.1	43.1	43.1	93	41.2	0	1	112	0.00	30.137 
08:25	43.3	43.3	43.3	93	41.4	0	1	112	0.00	30.137 
08:30	43.6	43.6	43.6	93	41.7	0	1	112	0.00	30.140 
08:35	43.9	43.9	43.9	93	42.0	0	1	112	0.00	30.140 
08:40	44.3	44.3	44.3	93	42.4	0	1	112	0.00	30.140 
08:45	44.9	44.9	44.9	93	43.0	0	1	112	0.00	30.142 
08:50	45.4	45.4	45.4	92	43.2	1	4	112	0.00	30.142 
08:55	45.8	45.8	45.8	91	43.3	0	1	90	0.00	30.142 
09:00	46.2	46.2	46.2	91	43.7	1	4	90	0.00	30.137 
09:05	46.7	46.7	46.7	90	43.9	1	3	112	0.00	30.137 
09:10	47.1	47.1	47.1	89	44.0	2	6	90	0.00	30.137 
09:15	47.6	47.6	47.6	88	44.2	1	4	90	0.00	30.138 
09:20	48.0	48.0	48.0	88	44.6	0	3	90	0.00	30.138 
09:25	48.5	48.5	48.5	87	44.8	1	3	90	0.00	30.138 
09:30	48.9	48.9	48.9	87	45.2	1	4	90	0.00	30.140 
09:35	49.2	49.2	49.2	86	45.2	1	4	90	0.00	30.140 
09:40	49.8	49.8	49.8	86	45.8	0	5	90	0.00	30.140 
09:45	50.1	50.1	50.1	85	45.8	1	4	90	0.00	30.145 
09:50	50.5	50.5	50.5	84	45.8	1	3	90	0.00	30.145 
09:55	51.0	51.0	51.0	84	46.3	1	5	90	0.00	30.145 
10:00	51.3	51.3	51.3	83	46.3	2	6	90	0.00	30.146 
10:05	51.9	51.9	51.9	82	46.6	2	9	90	0.00	30.146 
10:10	52.3	52.3	52.3	82	47.0	1	4	68	0.00	30.146 
10:15	52.8	52.8	52.8	81	47.1	3	7	90	0.00	30.146 
10:20	53.5	53.5	53.5	77	46.5	3	10	90	0.00	30.146 
10:25	53.9	53.9	53.9	77	46.9	3	7	90	0.00	30.146 
10:30	54.7	54.7	54.7	76	47.3	2	4	68	0.00	30.141 
10:35	55.1	55.1	55.1	74	47.0	2	5	68	0.00	30.141 
10:40	55.9	55.9	55.9	73	47.4	1	4	90	0.00	30.141 
10:45	56.7	56.7	56.7	72	47.8	2	5	90	0.00	30.143 
10:50	57.2	57.2	57.2	70	47.5	2	6	68	0.00	30.143 
10:55	57.5	57.5	57.5	69	47.4	3	6	90	0.00	30.143 
11:00	57.3	57.3	57.3	69	47.2	3	9	90	0.00	30.142 
11:05	57.6	57.6	57.6	68	47.1	2	6	90	0.00	30.142 
11:10	58.1	58.1	58.1	68	47.6	2	5	112	0.00	30.142 
11:15	58.7	58.7	58.7	66	47.4	2	6	90	0.00	30.141 
11:20	59.0	59.0	59.0	63	46.4	2	6	68	0.00	30.141 
11:25	59.3	59.3	59.3	66	47.9	1	4	90	0.00	30.141 
11:30	60.1	60.1	60.1	63	47.5	2	5	90	0.00	30.139 
11:35	60.4	60.4	60.4	62	47.3	2	5	90	0.00	30.139 
11:40	60.5	60.5	60.5	62	47.4	1	4	68	0.00	30.139 
11:45	60.7	60.7	60.7	61	47.2	2	5	90	0.00	30.139 
11:50	60.7	60.7	60.7	59	46.3	2	6	112	0.00	30.139 
11:55	60.4	60.4	60.4	61	46.9	1	4	68	0.00	30.139 
12:00	60.4	60.4	60.4	62	47.3	0	2	68	0.00	30.137 
12:05	60.5	60.5	60.5	60	46.5	1	5	90	0.00	30.137 
12:10	60.9	60.9	60.9	60	46.9	2	6	90	0.00	30.137 
12:15	61.3	61.3	61.3	60	47.3	2	6	90	0.00	30.138 
12:20	61.6	61.6	61.6	59	47.1	2	5	90	0.00	30.138 
12:25	62.3	62.3	62.3	58	47.3	1	4	90	0.00	30.138 
12:30	62.4	62.4	62.4	56	46.5	0	3	90	0.00	30.133 
12:35	62.0	62.0	62.0	58	47.0	1	5	112	0.00	30.133 
12:40	61.3	61.3	61.3	59	46.8	1	5	68	0.00	30.133 
12:45	61.2	61.2	61.2	59	46.8	2	5	45	0.00	30.130 
12:50	61.0	61.0	61.0	56	45.2	2	5	90	0.00	30.130 
12:55	60.9	60.9	60.9	59	46.5	0	3	90	0.00	30.130 
13:00	61.0	61.0	61.0	59	46.6	0	4	90	0.00	30.127 
13:05	61.3	61.3	61.3	57	45.9	1	5	90	0.00	30.127 
13:10	62.3	62.3	62.3	55	45.9	2	4	90	0.00	30.127 
13:15	62.7	62.7	62.7	55	46.3	2	7	68	0.00	30.128 
13:20	62.4	62.4	62.4	54	45.5	2	5	90	0.00	30.128 
13:25	62.0	62.0	62.0	56	46.1	2	5	90	0.00	30.128 
13:30	61.8	61.8	61.8	58	46.9	0	3	90	0.00	30.131 
13:35	62.3	62.3	62.3	58	47.3	1	6	90	0.00	30.131 
13:40	63.1	63.1	63.1	54	46.2	3	7	90	0.00	30.131 
13:45	63.2	63.2	63.2	52	45.3	3	7	90	0.00	30.129 
13:50	63.2	63.2	63.2	54	46.3	1	4	90	0.00	30.129 
13:55	62.7	62.7	62.7	54	45.8	3	7	90	0.00	30.129 
14:00	62.3	62.3	62.3	54	45.4	1	4	90	0.00	30.124 
14:05	62.1	62.1	62.1	57	46.7	1	3	90	0.00	30.124 
14:10	62.4	62.4	62.4	53	45.0	1	5	90	0.00	30.124 
14:15	62.6	62.6	62.6	54	45.7	1	4	90	0.00	30.117 
14:20	62.9	62.9	62.9	52	45.0	2	5	90	0.00	30.117 
14:25	63.5	63.5	63.5	55	47.0	1	5	90	0.00	30.117 
14:30	64.0	64.0	64.0	51	45.5	3	6	112	0.00	30.111 
14:35	63.7	63.7	63.7	51	45.2	3	6	90	0.00	30.111 
14:40	63.4	63.4	63.4	50	44.4	2	7	90	0.00	30.111 
14:45	63.4	63.4	63.4	52	45.5	1	5	90	0.00	30.111 
14:50	63.7	63.7	63.7	51	45.2	1	4	90	0.00	30.111 
14:55	64.2	64.2	64.2	51	45.7	1	5	90	0.00	30.111 
15:00	64.5	64.5	64.5	50	45.4	2	7	90	0.00	30.107 
15:05	64.7	64.7	64.7	51	46.1	2	5	68	0.00	30.107 
15:10	64.8	64.8	64.8	50	45.7	2	5	90	0.00	30.107 
15:15	64.5	64.5	64.5	49	44.9	2	5	112	0.00	30.104 
15:20	64.3	64.3	64.3	51	45.8	2	5	112	0.00	30.104 
15:25	64.3	64.3	64.3	51	45.8	2	4	90	0.00	30.104 
15:30	64.5	64.5	64.5	49	44.9	2	5	112	0.00	30.095 
15:35	64.7	64.7	64.7	50	45.6	2	9	90	0.00	30.095 
15:40	64.8	64.8	64.8	49	45.2	1	5	90	0.00	30.095 
15:45	65.0	65.0	65.0	50	45.9	2	9	90	0.00	30.093 
15:50	65.0	65.0	65.0	47	44.3	3	5	90	0.00	30.093 
15:55	64.7	64.7	64.7	49	45.1	2	4	90	0.00	30.093 
16:00	64.7	64.7	64.7	50	45.6	2	5	90	0.00	30.088 
16:05	64.5	64.5	64.5	47	43.8	2	10	90	0.00	30.088 
16:10	64.5	64.5	64.5	49	44.9	3	7	90	0.00	30.088 
16:15	64.5	64.5	64.5	46	43.3	3	10	90	0.00	30.086 
16:20	64.5	64.5	64.5	49	44.9	2	7	90	0.00	30.086 
16:25	64.5	64.5	64.5	48	44.4	3	6	90	0.00	30.086 
16:30	64.3	64.3	64.3	48	44.2	3	10	90	0.00	30.080 
16:35	64.3	64.3	64.3	49	44.7	2	6	90	0.00	30.080 
16:40	64.3	64.3	64.3	48	44.2	2	7	112	0.00	30.080 
16:45	64.2	64.2	64.2	47	43.5	3	7	90	0.00	30.081 
16:50	64.2	64.2	64.2	49	44.6	2	6	90	0.00	30.081 
16:55	64.2	64.2	64.2	47	43.5	2	5	90	0.00	30.081 
17:00	64.2	64.2	64.2	49	44.6	1	5	90	0.00	30.079 
17:05	64.2	64.2	64.2	49	44.6	2	5	135	0.00	30.079 
17:10	64.2	64.2	64.2	48	44.1	1	3	68	0.00	30.079 
17:15	64.2	64.2	64.2	46	43.0	2	5	90	0.00	30.081 
17:20	64.2	64.2	64.2	48	44.1	2	7	90	0.00	30.081 
17:25	64.0	64.0	64.0	48	43.9	1	3	90	0.00	30.081 
17:30	64.0	64.0	64.0	49	44.5	2	5	90	0.00	30.079 
17:35	63.9	63.9	63.9	48	43.8	2	4	90	0.00	30.079 
17:40	63.9	63.9	63.9	49	44.4	2	6	90	0.00	30.079 
17:45	63.9	63.9	63.9	49	44.4	1	6	90	0.00	30.079 
17:50	64.0	64.0	64.0	48	43.9	3	7	90	0.00	30.079 
17:55	63.9	63.9	63.9	49	44.4	2	7	90	0.00	30.079 
18:00	63.5	63.5	63.5	49	44.0	3	7	90	0.00	30.079 
18:05	63.5	63.5	63.5	50	44.5	2	7	90	0.00	30.079 
18:10	63.4	63.4	63.4	51	45.0	2	7	90	0.00	30.079 
18:15	63.1	63.1	63.1	51	44.7	2	6	90	0.00	30.081 
18:20	62.9	62.9	62.9	50	44.0	2	6	90	0.00	30.081 
18:25	62.9	62.9	62.9	51	44.5	2	4	90	0.00	30.081 
18:30	62.7	62.7	62.7	51	44.3	3	8	90	0.00	30.082 
18:35	62.6	62.6	62.6	52	44.7	2	4	90	0.00	30.082 
18:40	62.4	62.4	62.4	52	44.5	2	5	90	0.00	30.082 
18:45	62.1	62.1	62.1	52	44.3	2	7	90	0.00	30.082 
18:50	62.0	62.0	62.0	53	44.7	2	5	68	0.00	30.082 
18:55	61.6	61.6	61.6	54	44.8	2	3	68	0.00	30.082 
19:00	61.5	61.5	61.5	54	44.7	2	5	90	0.00	30.081 
19:05	61.3	61.3	61.3	54	44.5	2	5	90	0.00	30.081 
19:10	61.0	61.0	61.0	54	44.2	2	5	90	0.00	30.081 
19:15	60.9	60.9	60.9	55	44.6	2	5	68	0.00	30.083 
19:20	60.5	60.5	60.5	56	44.7	2	5	90	0.00	30.083 
19:25	60.2	60.2	60.2	58	45.4	1	6	90	0.00	30.083 
19:30	59.9	59.9	59.9	59	45.5	1	4	112	0.00	30.083 
19:35	59.5	59.5	59.5	60	45.6	2	4	112	0.00	30.083 
19:40	59.0	59.0	59.0	61	45.6	1	5	112	0.00	30.083 
19:45	58.6	58.6	58.6	61	45.2	1	4	90	0.00	30.085 
19:50	58.3	58.3	58.3	62	45.3	2	4	90	0.00	30.085 
19:55	58.0	58.0	58.0	63	45.5	1	2	90	0.00	30.085 
20:00	57.5	57.5	57.5	63	45.0	1	4	90	0.00	30.086 
20:05	57.2	57.2	57.2	65	45.5	1	2	90	0.00	30.086 
20:10	56.9	56.9	56.9	65	45.3	0	2	90	0.00	30.086 
20:15	56.5	56.5	56.5	66	45.3	0	2	90	0.00	30.086 
20:20	56.2	56.2	56.2	66	45.0	0	2	90	0.00	30.086 
20:25	55.9	55.9	55.9	67	45.1	1	4	90	0.00	30.086 
20:30	55.7	55.7	55.7	68	45.3	1	3	90	0.00	30.093 
20:35	55.4	55.4	55.4	68	45.0	1	3	90	0.00	30.093 
20:40	55.3	55.3	55.3	69	45.3	0	1	90	0.00	30.093 
20:45	55.0	55.0	55.0	69	45.0	0	2	90	0.00	30.098 
20:50	54.7	54.7	54.7	70	45.1	0	1	90	0.00	30.098 
20:55	54.5	54.5	54.5	71	45.3	0	1	90	0.00	30.098 
21:00	54.2	54.2	54.2	72	45.4	0	1	90	0.00	30.100 
21:05	53.9	53.9	53.9	72	45.1	0	1	90	0.00	30.100 
21:10	53.8	53.8	53.8	73	45.3	0	1	90	0.00	30.100 
21:15	53.5	53.5	53.5	73	45.1	0	0	---	0.00	30.097 
21:20	53.3	53.3	53.3	73	44.9	0	0	---	0.00	30.097 
21:25	53.1	53.1	53.1	73	44.7	0	0	---	0.00	30.097 
21:30	52.8	52.8	52.8	74	44.7	0	0	---	0.00	30.100 
21:35	52.5	52.5	52.5	74	44.5	0	0	---	0.00	30.100 
21:40	52.2	52.2	52.2	75	44.5	0	0	---	0.00	30.100 
21:45	51.9	51.9	51.9	76	44.6	0	0	---	0.00	30.105 
21:50	51.6	51.6	51.6	77	44.6	0	0	---	0.00	30.105 
21:55	51.3	51.3	51.3	77	44.3	0	0	---	0.00	30.105 
22:00	51.0	51.0	51.0	77	44.0	0	0	---	0.00	30.107 
22:05	51.0	51.0	51.0	79	44.7	0	1	90	0.00	30.107 
22:10	51.3	51.3	51.3	78	44.7	0	1	90	0.00	30.107 
22:15	51.3	51.3	51.3	78	44.7	0	0	---	0.00	30.101 
22:20	51.3	51.3	51.3	78	44.7	0	1	90	0.00	30.101 
22:25	51.3	51.3	51.3	79	45.0	0	1	90	0.00	30.101 
22:30	51.1	51.1	51.1	79	44.8	0	2	90	0.00	30.096 
22:35	51.1	51.1	51.1	78	44.5	0	2	90	0.00	30.096 
22:40	51.3	51.3	51.3	78	44.7	1	3	90	0.00	30.096 
22:45	51.3	51.3	51.3	77	44.3	1	4	90	0.00	30.097 
22:50	51.3	51.3	51.3	77	44.3	0	2	90	0.00	30.097 
22:55	51.1	51.1	51.1	77	44.1	1	3	90	0.00	30.097 
23:00	51.1	51.1	51.1	77	44.1	0	2	90	0.00	30.101 
23:05	51.0	51.0	51.0	77	44.0	0	1	90	0.00	30.101 
23:10	50.8	50.8	50.8	77	43.9	0	2	90	0.00	30.101 
23:15	50.7	50.7	50.7	77	43.8	0	1	90	0.00	30.106 
23:20	50.5	50.5	50.5	78	43.9	0	1	90	0.00	30.106 
23:25	50.4	50.4	50.4	78	43.8	0	1	90	0.00	30.106 
23:30	50.4	50.4	50.4	78	43.8	0	2	90	0.00	30.106 
23:35	50.4	50.4	50.4	78	43.8	0	2	90	0.00	30.106 
23:40	50.4	50.4	50.4	78	43.8	1	2	90	0.00	30.106 
23:45	50.4	50.4	50.4	77	43.5	0	2	90	0.00	30.105 
23:50	50.4	50.4	50.4	77	43.5	0	2	90	0.00	30.105 
23:55	50.2	50.2	50.2	78	43.6	0	4	90	0.00	30.105 

CoCoRaHS
IN-AL-39
A2 Web Hosting
Creative Commons License
GoDaddy
search engine by freefind advanced

loaded 2018-11-14 00:31:39 • last modified 2010-11-18 10:43:29
Privacy PolicyDisclaimer
• wx.awcolley.com is powered by PmWiki v.2002016 •
• all content (unless otherwise noted) © 2018 A W Colley